• Join FlightAware (Why Join?)
  • Login
  • US Flag 
07:46PM EDT


 

Airport Tracker/Info


-or-


 

Live Flight TrackerFlight Track Log ✈ N989RF ✈ 28-Apr-2013 ✈ KJZI - KMKS

Flight Track Log - Related Links

Times and Time Zones

All times are in EDT time to prevent confusion due to time zone crossing. See the N989RF flight status page for this flight to view local times or setup timezone preferences in your user account.

Time Position Orientation Groundspeed Altitude Reporting Facility
EDT Latitude Longitude Course Direction KTS MPH feet Rate Location/Type
08:24PM 32.9047 -80.0059 357° North  Level FlightAware Approximate
08:25PM 32.9456 -80.0086 357° North  Level FlightAware Approximate
08:26PM 32.9865 -80.0113 357° North  Level FlightAware Approximate
08:27PM 33.0274 -80.0140 357° North  Level FlightAware Approximate
08:28PM 33.0683 -80.0167 North  Level FlightAware Approximate
08:29PM 33.1091 -80.0185 350° North  Level FlightAware Approximate
08:30PM 33.1495 -80.0266 350° North  Level FlightAware Approximate
08:31PM 33.1833 -80.0333 350° North  Level FlightAware Approximate
08:32PM 33.1855 -80.0362 350° North  Level Estimated
08:33PM 33.1833 -80.0333 350° North  Level FlightAware Approximate
08:34PM 33.1855 -80.0362 350° North  Level Estimated
08:35PM 33.1833 -80.0333 350° North  Level FlightAware Approximate
08:36PM 33.1855 -80.0362 350° North  Level Estimated
08:37PM 33.1833 -80.0333 350° North  Level FlightAware Approximate
08:38PM 33.1855 -80.0362 350° North  Level Estimated
08:39PM 33.1833 -80.0333 350° North  Level FlightAware Approximate
08:40PM 33.1855 -80.0362 350° North  Level Estimated
08:41PM 33.1833 -80.0333 350° North  Level FlightAware Approximate
08:42PM 33.1855 -80.0362 350° North  Level Estimated
08:43PM 33.1833 -80.0333 350° North  Level FlightAware Approximate
08:44PM 33.1855 -80.0362 350° North  Level Estimated
08:45PM 33.1833 -80.0333 350° North  Level FlightAware Approximate
08:46PM 33.1855 -80.0362 350° North  Level Estimated
08:47PM 33.1833 -80.0333 350° North  Level FlightAware Approximate